UAE238 KBOS-OMDB
Flight info
| Callsign | UAE238 |
|---|---|
| Flight time | N/A |
| Altitude | 35000 |
| Route | LBSTA8 LBSTA DCT EBONY N567B TUDEP/M085F360 NATX GISTI/N0484F370 DCT LESLU DCT LIZAD DCT JSY DCT ARSUK DCT RESMI DCT ODEBU DCT OGULO DCT OKASI DCT OKEKO DCT MOU DCT MADIV/N0477F390 DCT MOKIP DCT TUFTA DCT KOGAS DCT MEDAM DCT NITAM DCT MOGBO DCT UPDIN DCT SOMAS DCT BELIX DCT SALUN N705 MMA P751 DASUM Y234 FYM M872 EVANO/N0487F410 M872 BDB Y214 RAPMA DCT KUVSO DCT KATIT DCT PEKEM M628 RIGIL G783 ELUDA/N0500F350 G783 ASPED Q308 KIPOK Q568 IMPED |
| Aircraft | A359/H-SDE2E3GHIJ3J4J5LM1ORWXY/LB1D1 |
Departure
| Time | N/A |
|---|---|
| Airport | Boston Logan International Airport (KBOS) |
Arrival
| Time | 2026-04-22 14:09 |
|---|---|
| Airport | Dubai International Airport (OMDB) |
| Time | Latitude | Longitude | Altitude | Speed | Heading |
|---|---|---|---|---|---|
| 2026-04-22 12:20 | 24.38038 | 41.36496 | 40895 ft | 575 kts | 99° |
| 2026-04-22 12:20 | 24.37112 | 41.45182 | 40903 ft | 575 kts | 99° |
| 2026-04-22 12:21 | 24.36178 | 41.53900 | 40903 ft | 575 kts | 99° |
| 2026-04-22 12:21 | 24.35238 | 41.62636 | 40908 ft | 575 kts | 99° |
| 2026-04-22 12:22 | 24.34299 | 41.71307 | 40905 ft | 575 kts | 99° |
| 2026-04-22 12:22 | 24.33336 | 41.80031 | 40892 ft | 574 kts | 101° |
| 2026-04-22 12:23 | 24.31521 | 41.88467 | 40902 ft | 570 kts | 109° |
| 2026-04-22 12:23 | 24.29359 | 41.96835 | 40897 ft | 570 kts | 110° |
| 2026-04-22 12:24 | 24.27129 | 42.05189 | 40894 ft | 570 kts | 110° |
| 2026-04-22 12:24 | 24.24914 | 42.13501 | 40895 ft | 569 kts | 110° |
| 2026-04-22 12:25 | 24.22699 | 42.21854 | 40885 ft | 569 kts | 110° |
| 2026-04-22 12:25 | 24.20499 | 42.30154 | 40887 ft | 570 kts | 110° |
| 2026-04-22 12:26 | 24.18282 | 42.38497 | 40887 ft | 570 kts | 110° |
| 2026-04-22 12:26 | 24.16067 | 42.46810 | 40886 ft | 570 kts | 110° |
| 2026-04-22 12:27 | 24.13841 | 42.55145 | 40887 ft | 570 kts | 110° |
| 2026-04-22 12:27 | 24.11607 | 42.63488 | 40878 ft | 570 kts | 110° |
| 2026-04-22 12:28 | 24.09381 | 42.71779 | 40885 ft | 570 kts | 110° |
| 2026-04-22 12:28 | 24.07136 | 42.80125 | 40887 ft | 570 kts | 110° |
| 2026-04-22 12:29 | 24.04905 | 42.88399 | 40884 ft | 570 kts | 110° |
| 2026-04-22 12:29 | 24.02662 | 42.96698 | 40877 ft | 570 kts | 110° |
| 2026-04-22 12:30 | 23.99285 | 43.09150 | 40881 ft | 570 kts | 110° |
| 2026-04-22 12:31 | 23.97019 | 43.17479 | 40882 ft | 570 kts | 110° |
| 2026-04-22 12:31 | 23.94766 | 43.25742 | 40870 ft | 569 kts | 110° |
| 2026-04-22 12:32 | 23.92493 | 43.34065 | 40873 ft | 568 kts | 110° |
| 2026-04-22 12:32 | 23.89106 | 43.46424 | 40871 ft | 567 kts | 110° |
| 2026-04-22 12:33 | 23.86846 | 43.54646 | 40860 ft | 567 kts | 110° |
| 2026-04-22 12:33 | 23.84571 | 43.62907 | 40855 ft | 567 kts | 110° |
| 2026-04-22 12:34 | 23.82291 | 43.71164 | 40850 ft | 566 kts | 110° |
| 2026-04-22 12:34 | 23.80025 | 43.79356 | 40857 ft | 566 kts | 110° |
| 2026-04-22 12:35 | 23.77827 | 43.87639 | 40849 ft | 568 kts | 104° |
| 2026-04-22 12:35 | 23.76815 | 43.96159 | 40849 ft | 569 kts | 97° |
| 2026-04-22 12:36 | 23.76153 | 44.04743 | 40842 ft | 569 kts | 96° |
| 2026-04-22 12:36 | 23.75547 | 44.13395 | 40844 ft | 569 kts | 96° |
| 2026-04-22 12:37 | 23.74922 | 44.22007 | 40852 ft | 570 kts | 96° |
| 2026-04-22 12:37 | 23.74275 | 44.30603 | 40862 ft | 570 kts | 96° |
| 2026-04-22 12:38 | 23.73613 | 44.39260 | 40864 ft | 570 kts | 96° |
| 2026-04-22 12:38 | 23.72951 | 44.47834 | 40868 ft | 571 kts | 96° |
| 2026-04-22 12:39 | 23.71944 | 44.60796 | 40874 ft | 571 kts | 96° |
| 2026-04-22 12:40 | 23.71266 | 44.69463 | 40866 ft | 572 kts | 96° |
| 2026-04-22 12:40 | 23.70583 | 44.78108 | 40863 ft | 572 kts | 96° |
| 2026-04-22 12:41 | 23.69897 | 44.86747 | 40861 ft | 572 kts | 96° |
| 2026-04-22 12:41 | 23.69213 | 44.95346 | 40884 ft | 572 kts | 96° |
| 2026-04-22 12:42 | 23.68511 | 45.04020 | 40829 ft | 572 kts | 96° |
| 2026-04-22 12:42 | 23.67809 | 45.12638 | 40848 ft | 572 kts | 96° |
| 2026-04-22 12:43 | 23.67099 | 45.21305 | 40856 ft | 572 kts | 96° |
| 2026-04-22 12:43 | 23.66389 | 45.29970 | 40853 ft | 573 kts | 96° |
| 2026-04-22 12:44 | 23.65675 | 45.38569 | 40860 ft | 572 kts | 97° |
| 2026-04-22 12:44 | 23.64949 | 45.47252 | 40849 ft | 573 kts | 97° |
| 2026-04-22 12:45 | 23.64225 | 45.55871 | 40834 ft | 573 kts | 97° |
| 2026-04-22 12:45 | 23.63494 | 45.64528 | 40842 ft | 573 kts | 96° |
| 2026-04-22 12:46 | 23.62758 | 45.73203 | 40841 ft | 573 kts | 97° |
| 2026-04-22 12:46 | 23.62013 | 45.81862 | 40845 ft | 574 kts | 97° |
| 2026-04-22 12:47 | 23.61260 | 45.90554 | 40840 ft | 575 kts | 97° |
| 2026-04-22 12:47 | 23.60507 | 45.99206 | 40839 ft | 576 kts | 97° |
| 2026-04-22 12:48 | 23.59743 | 46.07939 | 40838 ft | 576 kts | 97° |
| 2026-04-22 12:48 | 23.58980 | 46.16610 | 40841 ft | 577 kts | 97° |
| 2026-04-22 12:49 | 23.58214 | 46.25278 | 40849 ft | 577 kts | 96° |
| 2026-04-22 12:49 | 23.57441 | 46.33971 | 40859 ft | 576 kts | 96° |
| 2026-04-22 12:50 | 23.56657 | 46.42684 | 40861 ft | 577 kts | 97° |
| 2026-04-22 12:50 | 23.55868 | 46.51411 | 40855 ft | 577 kts | 97° |
| 2026-04-22 12:51 | 23.55084 | 46.60065 | 40839 ft | 576 kts | 97° |
| 2026-04-22 12:51 | 23.54285 | 46.68774 | 40852 ft | 576 kts | 97° |
| 2026-04-22 12:52 | 23.53488 | 46.77420 | 40846 ft | 576 kts | 96° |
| 2026-04-22 12:52 | 23.52679 | 46.86140 | 40841 ft | 576 kts | 97° |
| 2026-04-22 12:53 | 23.51872 | 46.94793 | 40841 ft | 576 kts | 97° |
| 2026-04-22 12:53 | 23.51058 | 47.03482 | 40830 ft | 576 kts | 97° |
| 2026-04-22 12:54 | 23.50237 | 47.12192 | 40828 ft | 577 kts | 97° |
| 2026-04-22 12:54 | 23.49415 | 47.20851 | 40819 ft | 576 kts | 97° |
| 2026-04-22 12:55 | 23.48586 | 47.29539 | 40818 ft | 576 kts | 97° |
| 2026-04-22 12:55 | 23.47755 | 47.38189 | 40823 ft | 576 kts | 97° |
| 2026-04-22 12:56 | 23.46918 | 47.46861 | 40809 ft | 576 kts | 97° |
| 2026-04-22 12:56 | 23.46076 | 47.55562 | 40824 ft | 576 kts | 97° |
| 2026-04-22 12:57 | 23.45233 | 47.64196 | 40812 ft | 576 kts | 97° |
| 2026-04-22 12:57 | 23.44375 | 47.72907 | 40810 ft | 576 kts | 97° |
| 2026-04-22 12:58 | 23.43522 | 47.81538 | 40803 ft | 575 kts | 97° |
| 2026-04-22 12:58 | 23.42659 | 47.90217 | 40795 ft | 575 kts | 97° |
| 2026-04-22 12:59 | 23.41799 | 47.98830 | 40795 ft | 575 kts | 97° |
| 2026-04-22 12:59 | 23.40928 | 48.07503 | 40785 ft | 576 kts | 97° |
| 2026-04-22 13:00 | 23.40051 | 48.16182 | 40788 ft | 576 kts | 97° |
| 2026-04-22 13:00 | 23.39172 | 48.24827 | 40769 ft | 576 kts | 97° |
| 2026-04-22 13:01 | 23.38286 | 48.33501 | 40780 ft | 576 kts | 97° |
| 2026-04-22 13:01 | 23.37671 | 48.42177 | 40777 ft | 575 kts | 92° |
| 2026-04-22 13:02 | 23.37432 | 48.50888 | 40773 ft | 575 kts | 91° |
| 2026-04-22 13:02 | 23.37179 | 48.59595 | 40771 ft | 575 kts | 92° |
| 2026-04-22 13:03 | 23.36850 | 48.68253 | 40765 ft | 575 kts | 92° |
| 2026-04-22 13:03 | 23.36481 | 48.76962 | 40767 ft | 575 kts | 92° |
| 2026-04-22 13:04 | 23.36107 | 48.85613 | 40772 ft | 575 kts | 92° |
| 2026-04-22 13:04 | 23.35729 | 48.94320 | 40763 ft | 574 kts | 92° |
| 2026-04-22 13:05 | 23.35350 | 49.03010 | 40763 ft | 573 kts | 92° |
| 2026-04-22 13:05 | 23.34468 | 49.11587 | 40765 ft | 573 kts | 98° |
| 2026-04-22 13:06 | 23.33272 | 49.20188 | 40763 ft | 573 kts | 99° |
| 2026-04-22 13:06 | 23.32025 | 49.28734 | 40766 ft | 573 kts | 99° |
| 2026-04-22 13:07 | 23.30773 | 49.37300 | 40764 ft | 573 kts | 99° |
| 2026-04-22 13:07 | 23.29530 | 49.45848 | 40747 ft | 573 kts | 99° |
| 2026-04-22 13:08 | 23.28285 | 49.54402 | 40770 ft | 572 kts | 99° |
| 2026-04-22 13:08 | 23.27245 | 49.61527 | 40765 ft | 572 kts | 99° |
| 2026-04-22 13:09 | 23.25988 | 49.70108 | 40763 ft | 572 kts | 99° |
| 2026-04-22 13:09 | 23.24733 | 49.78636 | 40764 ft | 572 kts | 99° |
| 2026-04-22 13:10 | 23.23475 | 49.87150 | 40760 ft | 573 kts | 99° |
| 2026-04-22 13:10 | 23.22206 | 49.95710 | 40760 ft | 572 kts | 99° |
| 2026-04-22 13:11 | 23.20932 | 50.04263 | 40761 ft | 571 kts | 99° |
| 2026-04-22 13:11 | 23.19660 | 50.12782 | 40764 ft | 570 kts | 99° |
| 2026-04-22 13:12 | 23.18388 | 50.21257 | 40756 ft | 570 kts | 99° |
| 2026-04-22 13:12 | 23.17107 | 50.29770 | 40759 ft | 570 kts | 99° |
| 2026-04-22 13:13 | 23.15825 | 50.38251 | 40759 ft | 570 kts | 99° |
| 2026-04-22 13:13 | 23.14540 | 50.46720 | 40765 ft | 570 kts | 99° |
| 2026-04-22 13:14 | 23.13241 | 50.55251 | 40741 ft | 570 kts | 99° |
| 2026-04-22 13:14 | 23.11951 | 50.63696 | 40768 ft | 569 kts | 99° |
| 2026-04-22 13:15 | 23.10652 | 50.72165 | 40771 ft | 568 kts | 99° |
| 2026-04-22 13:15 | 23.09342 | 50.80675 | 40759 ft | 568 kts | 99° |
| 2026-04-22 13:16 | 23.08037 | 50.89118 | 40769 ft | 568 kts | 99° |
| 2026-04-22 13:16 | 23.06734 | 50.97523 | 40769 ft | 568 kts | 99° |
| 2026-04-22 13:17 | 23.05421 | 51.05961 | 40760 ft | 568 kts | 99° |
| 2026-04-22 13:17 | 23.04094 | 51.14455 | 40763 ft | 567 kts | 99° |
| 2026-04-22 13:18 | 23.02780 | 51.22839 | 40764 ft | 566 kts | 99° |
| 2026-04-22 13:18 | 23.01455 | 51.31264 | 40760 ft | 566 kts | 99° |
| 2026-04-22 13:19 | 23.00127 | 51.39673 | 40762 ft | 566 kts | 99° |
| 2026-04-22 13:19 | 22.98790 | 51.48112 | 40760 ft | 566 kts | 99° |
| 2026-04-22 13:20 | 22.97453 | 51.56523 | 40757 ft | 566 kts | 99° |
| 2026-04-22 13:20 | 22.96104 | 51.64977 | 40757 ft | 566 kts | 99° |
| 2026-04-22 13:21 | 22.94763 | 51.73350 | 40748 ft | 566 kts | 99° |
| 2026-04-22 13:21 | 22.93408 | 51.81789 | 40751 ft | 566 kts | 99° |
| 2026-04-22 13:22 | 22.92056 | 51.90170 | 40747 ft | 565 kts | 99° |
| 2026-04-22 13:22 | 22.90702 | 51.98539 | 40744 ft | 565 kts | 99° |
| 2026-04-22 13:23 | 22.89334 | 52.06967 | 40750 ft | 565 kts | 99° |
| 2026-04-22 13:23 | 22.87971 | 52.15332 | 40754 ft | 566 kts | 99° |
| 2026-04-22 13:24 | 22.86602 | 52.23710 | 40742 ft | 566 kts | 99° |
| 2026-04-22 13:24 | 22.85220 | 52.32138 | 40741 ft | 564 kts | 99° |
| 2026-04-22 13:25 | 22.83848 | 52.40473 | 40735 ft | 564 kts | 99° |
| 2026-04-22 13:25 | 22.82593 | 52.48897 | 40741 ft | 563 kts | 92° |
| 2026-04-22 13:26 | 22.82198 | 52.57335 | 40741 ft | 562 kts | 90° |
| 2026-04-22 13:26 | 22.81978 | 52.65809 | 40729 ft | 562 kts | 89° |
| 2026-04-22 13:27 | 22.81786 | 52.74250 | 40741 ft | 562 kts | 89° |
| 2026-04-22 13:27 | 22.81574 | 52.82710 | 40729 ft | 562 kts | 90° |
| 2026-04-22 13:28 | 22.81346 | 52.91155 | 40736 ft | 562 kts | 90° |
| 2026-04-22 13:28 | 22.81109 | 52.99659 | 40710 ft | 562 kts | 90° |
| 2026-04-22 13:29 | 22.80871 | 53.08051 | 40719 ft | 561 kts | 90° |
| 2026-04-22 13:29 | 22.80626 | 53.16538 | 40728 ft | 560 kts | 90° |
| 2026-04-22 13:30 | 22.80380 | 53.24965 | 40734 ft | 560 kts | 90° |
| 2026-04-22 13:30 | 22.80128 | 53.33402 | 40727 ft | 560 kts | 90° |
| 2026-04-22 13:31 | 22.79873 | 53.41809 | 40722 ft | 560 kts | 90° |
| 2026-04-22 13:31 | 22.79611 | 53.50286 | 40718 ft | 560 kts | 90° |
| 2026-04-22 13:32 | 22.79348 | 53.58658 | 40703 ft | 560 kts | 90° |
| 2026-04-22 13:32 | 22.79078 | 53.67094 | 40707 ft | 560 kts | 90° |
| 2026-04-22 13:33 | 22.78805 | 53.75527 | 40717 ft | 560 kts | 90° |
| 2026-04-22 13:33 | 22.78527 | 53.83964 | 40711 ft | 559 kts | 90° |
| 2026-04-22 13:34 | 22.78244 | 53.92389 | 40716 ft | 559 kts | 90° |
| 2026-04-22 13:34 | 22.78429 | 54.00769 | 40712 ft | 553 kts | 76° |
| 2026-04-22 13:35 | 22.79868 | 54.08950 | 40708 ft | 550 kts | 74° |
| 2026-04-22 13:35 | 22.81518 | 54.17015 | 40700 ft | 550 kts | 73° |
| 2026-04-22 13:36 | 22.83194 | 54.25081 | 40703 ft | 550 kts | 73° |
| 2026-04-22 13:36 | 22.84853 | 54.33195 | 40708 ft | 550 kts | 73° |
| 2026-04-22 13:37 | 22.86488 | 54.41282 | 40701 ft | 550 kts | 73° |
| 2026-04-22 13:37 | 22.88122 | 54.49410 | 40714 ft | 550 kts | 73° |
| 2026-04-22 13:38 | 22.89741 | 54.57488 | 40698 ft | 550 kts | 73° |
| 2026-04-22 13:38 | 22.92164 | 54.69607 | 40703 ft | 550 kts | 73° |
| 2026-04-22 13:39 | 22.93780 | 54.77717 | 40704 ft | 550 kts | 73° |
| 2026-04-22 13:39 | 22.95398 | 54.85859 | 40708 ft | 550 kts | 74° |
| 2026-04-22 13:40 | 22.96996 | 54.93920 | 40702 ft | 550 kts | 74° |
| 2026-04-22 13:40 | 22.98600 | 55.02039 | 40703 ft | 550 kts | 74° |
| 2026-04-22 13:41 | 23.00197 | 55.10132 | 40709 ft | 549 kts | 74° |
| 2026-04-22 13:41 | 23.02861 | 55.17794 | 40712 ft | 533 kts | 53° |
| 2026-04-22 13:42 | 23.04957 | 55.21048 | 40713 ft | 522 kts | 42° |
| 2026-04-22 13:42 | 23.07497 | 55.23793 | 40714 ft | 510 kts | 31° |
| 2026-04-22 13:42 | 23.10371 | 55.25954 | 40720 ft | 498 kts | 21° |
| 2026-04-22 13:42 | 23.13464 | 55.27505 | 40720 ft | 487 kts | 11° |
| 2026-04-22 13:43 | 23.19952 | 55.29347 | 40722 ft | 482 kts | 6° |
| 2026-04-22 13:43 | 23.26473 | 55.31164 | 40717 ft | 482 kts | 6° |
| 2026-04-22 13:44 | 23.32935 | 55.33002 | 40721 ft | 483 kts | 7° |
| 2026-04-22 13:44 | 23.39432 | 55.34904 | 40718 ft | 483 kts | 7° |
| 2026-04-22 13:45 | 23.45944 | 55.36831 | 40727 ft | 484 kts | 7° |
| 2026-04-22 13:45 | 23.52421 | 55.38751 | 40730 ft | 485 kts | 7° |
| 2026-04-22 13:46 | 23.58941 | 55.40687 | 40729 ft | 485 kts | 7° |
| 2026-04-22 13:46 | 23.65462 | 55.42615 | 40730 ft | 485 kts | 7° |
| 2026-04-22 13:47 | 23.71962 | 55.44540 | 40741 ft | 485 kts | 7° |
| 2026-04-22 13:47 | 23.78488 | 55.46475 | 40727 ft | 486 kts | 7° |
| 2026-04-22 13:48 | 23.84977 | 55.48403 | 40730 ft | 486 kts | 7° |
| 2026-04-22 13:48 | 23.91510 | 55.50352 | 40733 ft | 486 kts | 7° |
| 2026-04-22 13:49 | 23.98012 | 55.52344 | 40331 ft | 485 kts | 11° |
| 2026-04-22 13:49 | 24.01139 | 55.53892 | 39583 ft | 502 kts | 22° |
| 2026-04-22 13:49 | 24.03995 | 55.56111 | 38820 ft | 515 kts | 30° |
| 2026-04-22 13:50 | 24.05872 | 55.57808 | 38336 ft | 520 kts | 32° |
| 2026-04-22 13:50 | 24.09478 | 55.61307 | 37136 ft | 526 kts | 35° |
| 2026-04-22 13:50 | 24.12185 | 55.64037 | 36294 ft | 528 kts | 36° |
| 2026-04-22 13:50 | 24.14887 | 55.66782 | 35479 ft | 529 kts | 36° |
| 2026-04-22 13:51 | 24.17596 | 55.69525 | 34689 ft | 529 kts | 37° |
| 2026-04-22 13:51 | 24.20304 | 55.72249 | 33907 ft | 529 kts | 37° |
| 2026-04-22 13:51 | 24.23021 | 55.74967 | 33022 ft | 529 kts | 37° |
| 2026-04-22 13:51 | 24.25746 | 55.77684 | 32109 ft | 530 kts | 37° |
| 2026-04-22 13:52 | 24.28443 | 55.80366 | 31228 ft | 530 kts | 38° |
| 2026-04-22 13:52 | 24.31175 | 55.83083 | 30354 ft | 530 kts | 38° |
| 2026-04-22 13:52 | 24.33913 | 55.85807 | 29381 ft | 530 kts | 38° |
| 2026-04-22 13:52 | 24.36650 | 55.88531 | 28385 ft | 530 kts | 39° |
| 2026-04-22 13:53 | 24.39379 | 55.91255 | 27549 ft | 528 kts | 39° |
| 2026-04-22 13:53 | 24.42064 | 55.93936 | 26783 ft | 524 kts | 39° |
| 2026-04-22 13:53 | 24.44745 | 55.96612 | 26082 ft | 519 kts | 39° |
| 2026-04-22 13:53 | 24.47407 | 55.99269 | 25377 ft | 515 kts | 39° |
| 2026-04-22 13:54 | 24.50045 | 56.01903 | 24699 ft | 510 kts | 39° |
| 2026-04-22 13:54 | 24.52664 | 56.04519 | 23968 ft | 500 kts | 40° |
| 2026-04-22 13:54 | 24.55182 | 56.07039 | 22692 ft | 491 kts | 40° |
| 2026-04-22 13:54 | 24.57708 | 56.09539 | 21214 ft | 483 kts | 38° |
| 2026-04-22 13:55 | 24.60481 | 56.11533 | 19934 ft | 469 kts | 23° |
| 2026-04-22 13:55 | 24.63510 | 56.12738 | 18683 ft | 456 kts | 14° |
| 2026-04-22 13:55 | 24.66572 | 56.13550 | 17287 ft | 448 kts | 9° |
| 2026-04-22 13:55 | 24.69574 | 56.14142 | 15949 ft | 439 kts | 7° |
| 2026-04-22 13:56 | 24.72593 | 56.14645 | 14940 ft | 440 kts | 6° |
| 2026-04-22 13:56 | 24.75584 | 56.15121 | 14590 ft | 426 kts | 7° |
| 2026-04-22 13:56 | 24.78481 | 56.15292 | 14311 ft | 408 kts | 354° |
| 2026-04-22 13:56 | 24.81184 | 56.14617 | 14071 ft | 390 kts | 338° |
| 2026-04-22 13:57 | 24.82839 | 56.13909 | 13925 ft | 380 kts | 335° |
| 2026-04-22 13:57 | 24.85998 | 56.12412 | 13648 ft | 363 kts | 333° |
| 2026-04-22 13:57 | 24.88267 | 56.11309 | 13448 ft | 350 kts | 334° |
| 2026-04-22 13:57 | 24.89755 | 56.10582 | 13333 ft | 342 kts | 333° |
| 2026-04-22 13:58 | 24.91887 | 56.09535 | 13133 ft | 329 kts | 334° |
| 2026-04-22 13:58 | 24.93818 | 56.08330 | 12967 ft | 314 kts | 321° |
| 2026-04-22 13:58 | 24.95371 | 56.06708 | 12608 ft | 305 kts | 305° |
| 2026-04-22 13:58 | 24.96561 | 56.04763 | 12079 ft | 303 kts | 295° |
| 2026-04-22 13:59 | 24.97454 | 56.02688 | 11721 ft | 297 kts | 291° |
| 2026-04-22 13:59 | 24.98224 | 56.00619 | 11326 ft | 294 kts | 289° |
| 2026-04-22 13:59 | 24.98953 | 55.98520 | 10901 ft | 292 kts | 288° |
| 2026-04-22 13:59 | 24.99658 | 55.96417 | 10475 ft | 291 kts | 287° |
| 2026-04-22 14:00 | 25.00348 | 55.94318 | 10048 ft | 290 kts | 287° |
| 2026-04-22 14:00 | 25.01031 | 55.92219 | 9649 ft | 289 kts | 287° |
| 2026-04-22 14:00 | 25.01529 | 55.90679 | 9337 ft | 288 kts | 287° |
| 2026-04-22 14:00 | 25.02200 | 55.88594 | 8876 ft | 287 kts | 287° |
| 2026-04-22 14:01 | 25.02865 | 55.86527 | 8481 ft | 284 kts | 287° |
| 2026-04-22 14:01 | 25.03522 | 55.84478 | 8071 ft | 282 kts | 287° |
| 2026-04-22 14:01 | 25.04169 | 55.82463 | 7653 ft | 281 kts | 287° |
| 2026-04-22 14:01 | 25.04814 | 55.80449 | 7055 ft | 275 kts | 287° |
| 2026-04-22 14:02 | 25.05453 | 55.78454 | 6350 ft | 274 kts | 288° |
| 2026-04-22 14:02 | 25.06085 | 55.76480 | 5622 ft | 279 kts | 287° |
| 2026-04-22 14:02 | 25.06724 | 55.74488 | 5367 ft | 270 kts | 286° |
| 2026-04-22 14:02 | 25.07336 | 55.72581 | 5223 ft | 257 kts | 286° |
| 2026-04-22 14:03 | 25.07919 | 55.70762 | 5092 ft | 245 kts | 285° |
| 2026-04-22 14:03 | 25.08471 | 55.69021 | 4906 ft | 237 kts | 287° |
| 2026-04-22 14:03 | 25.09005 | 55.67349 | 4683 ft | 231 kts | 287° |
| 2026-04-22 14:03 | 25.09537 | 55.65679 | 4363 ft | 230 kts | 287° |
| 2026-04-22 14:04 | 25.10121 | 55.64044 | 4103 ft | 228 kts | 293° |
| 2026-04-22 14:04 | 25.10907 | 55.62538 | 4014 ft | 226 kts | 298° |
| 2026-04-22 14:04 | 25.11736 | 55.61049 | 4003 ft | 228 kts | 299° |
| 2026-04-22 14:04 | 25.12568 | 55.59558 | 3936 ft | 227 kts | 297° |
| 2026-04-22 14:05 | 25.13341 | 55.58034 | 3715 ft | 226 kts | 296° |
| 2026-04-22 14:05 | 25.14136 | 55.56548 | 3420 ft | 226 kts | 300° |
| 2026-04-22 14:05 | 25.15780 | 55.53616 | 2800 ft | 223 kts | 300° |
| 2026-04-22 14:06 | 25.16583 | 55.52157 | 2535 ft | 222 kts | 300° |
| 2026-04-22 14:06 | 25.17384 | 55.50713 | 2252 ft | 220 kts | 300° |
| 2026-04-22 14:06 | 25.18179 | 55.49275 | 1970 ft | 219 kts | 302° |
| 2026-04-22 14:06 | 25.18950 | 55.47875 | 1700 ft | 209 kts | 304° |
| 2026-04-22 14:07 | 25.19671 | 55.46567 | 1486 ft | 190 kts | 305° |
| 2026-04-22 14:07 | 25.20338 | 55.45360 | 1229 ft | 179 kts | 307° |
| 2026-04-22 14:07 | 25.20964 | 55.44233 | 1008 ft | 166 kts | 307° |
| 2026-04-22 14:07 | 25.21534 | 55.43203 | 759 ft | 149 kts | 306° |
| 2026-04-22 14:08 | 25.22066 | 55.42280 | 619 ft | 138 kts | 306° |
| 2026-04-22 14:08 | 25.22550 | 55.41376 | 454 ft | 136 kts | 301° |
| 2026-04-22 14:08 | 25.23031 | 55.40472 | 265 ft | 136 kts | 304° |
| 2026-04-22 14:08 | 25.23527 | 55.39596 | 70 ft | 135 kts | 304° |
| 2026-04-22 14:09 | 25.24005 | 55.38748 | 30 ft | 115 kts | 302° |
| 2026-04-22 14:09 | 25.24353 | 55.38114 | 32 ft | 80 kts | 302° |
| 2026-04-22 14:09 | 25.24574 | 55.37712 | 28 ft | 43 kts | 301° |
| 2026-04-22 14:09 | 25.24726 | 55.37433 | 29 ft | 40 kts | 297° |
| 2026-04-22 14:10 | 25.24778 | 55.37233 | 30 ft | 19 kts | 276° |
| 2026-04-22 14:10 | 25.24783 | 55.37146 | 30 ft | 6 kts | 274° |
| 2026-04-22 14:10 | 25.24786 | 55.37085 | 29 ft | 10 kts | 272° |
| 2026-04-22 14:10 | 25.24787 | 55.36997 | 28 ft | 12 kts | 265° |
| 2026-04-22 14:11 | 25.24742 | 55.36941 | 29 ft | 8 kts | 210° |
| 2026-04-22 14:11 | 25.24682 | 55.36932 | 28 ft | 10 kts | 172° |
| 2026-04-22 14:11 | 25.24617 | 55.36948 | 28 ft | 8 kts | 167° |
| 2026-04-22 14:11 | 25.24574 | 55.36959 | 27 ft | 5 kts | 167° |
| 2026-04-22 14:12 | 25.24559 | 55.36962 | 27 ft | 0 kts | 166° |